Time;durP1;ratioP1;P1;durP2;ratioP2;P2;SDS_P1;SDS_P2;PMS_P1;PMS_P2;Temp;Humidity;BMP_temperature;BMP_pressure;BME280_temperature;BME280_humidity;BME280_pressure;Samples;Min_cycle;Max_cycle;Signal;HPM_P1;HPM_P2
2021/08/03 00:02:24;;;;;;;3.92;1.48;;;15.90;94.00;;;;;;5012193;28;20361;-69
2021/08/03 00:04:54;;;;;;;10.35;2.15;;;15.90;94.00;;;;;;5011778;28;20026;-68
2021/08/03 00:07:19;;;;;;;3.95;1.33;;;15.90;94.00;;;;;;5012150;28;20653;-68
2021/08/03 00:09:46;;;;;;;1.80;1.42;;;16.00;93.80;;;;;;5011862;28;20852;-67
2021/08/03 00:12:14;;;;;;;2.83;1.30;;;15.90;93.90;;;;;;5009202;28;20026;-67
2021/08/03 00:14:48;;;;;;;3.55;1.17;;;15.90;93.80;;;;;;5011767;28;20030;-67
2021/08/03 00:17:20;;;;;;;3.63;1.30;;;15.90;93.90;;;;;;5010706;28;20030;-67
2021/08/03 00:19:46;;;;;;;3.53;1.48;;;15.90;93.70;;;;;;5001669;28;20025;-68
2021/08/03 00:22:12;;;;;;;2.80;1.33;;;15.90;93.70;;;;;;5011448;28;20538;-67
2021/08/03 00:24:39;;;;;;;1.58;1.00;;;15.90;93.80;;;;;;5011904;28;20030;-67
2021/08/03 00:27:07;;;;;;;6.35;1.58;;;15.90;93.90;;;;;;5013172;28;20472;-68
2021/08/03 00:29:35;;;;;;;4.18;1.40;;;15.90;94.00;;;;;;5017118;28;20349;-68
2021/08/03 00:32:00;;;;;;;2.28;1.30;;;15.80;94.30;;;;;;5019828;28;20057;-68
2021/08/03 00:34:26;;;;;;;3.95;1.50;;;15.90;94.40;;;;;;5023414;28;20061;-67
2021/08/03 00:36:52;;;;;;;3.90;1.65;;;15.80;94.20;;;;;;5020956;28;20448;-67
2021/08/03 00:39:17;;;;;;;4.30;1.58;;;15.90;94.10;;;;;;5016727;28;20569;-67
2021/08/03 00:41:54;;;;;;;2.38;1.50;;;15.80;94.10;;;;;;5021924;28;20018;-68
2021/08/03 00:44:19;;;;;;;3.33;1.27;;;15.80;94.10;;;;;;5012898;28;20056;-68
2021/08/03 00:46:45;;;;;;;4.22;1.67;;;15.80;94.10;;;;;;5013396;28;20547;-67
2021/08/03 00:49:11;;;;;;;2.97;1.45;;;15.80;94.20;;;;;;5015791;28;20034;-68
2021/08/03 00:51:38;;;;;;;2.53;1.35;;;15.80;94.20;;;;;;5016567;28;20049;-68
2021/08/03 00:54:03;;;;;;;2.08;1.50;;;15.80;94.20;;;;;;5015658;28;20475;-67
2021/08/03 00:56:30;;;;;;;3.10;1.58;;;15.70;94.20;;;;;;5023065;28;20029;-67
2021/08/03 00:58:56;;;;;;;2.75;1.50;;;15.80;94.30;;;;;;5022903;28;20037;-68
2021/08/03 01:01:21;;;;;;;3.88;1.75;;;15.80;94.30;;;;;;5014582;28;20494;-68
2021/08/03 01:03:47;;;;;;;4.15;1.85;;;15.80;94.30;;;;;;5013456;28;20034;-68
2021/08/03 01:06:56;;;;;;;2.70;1.50;;;15.70;94.30;;;;;;5020817;28;20071;-68
2021/08/03 01:09:30;;;;;;;3.80;1.70;;;15.80;94.30;;;;;;5016218;28;20385;-69
2021/08/03 01:12:03;;;;;;;4.05;1.63;;;15.70;94.20;;;;;;5013363;28;20036;-68
2021/08/03 01:14:57;;;;;;;1.95;1.40;;;15.70;94.20;;;;;;5019914;28;20034;-68
2021/08/03 01:17:38;;;;;;;4.35;1.98;;;15.70;94.30;;;;;;5012400;28;20033;-67
2021/08/03 01:20:22;;;;;;;3.97;1.65;;;15.50;94.40;;;;;;5017133;28;20032;-67
2021/08/03 01:23:10;;;;;;;4.72;2.30;;;15.50;94.50;;;;;;5017386;28;20037;-67
2021/08/03 01:26:01;;;;;;;6.13;2.35;;;15.50;94.40;;;;;;5016023;28;20396;-67
2021/08/03 01:28:33;;;;;;;9.20;2.13;;;15.50;94.30;;;;;;5009639;28;20104;-69
2021/08/03 01:31:07;;;;;;;4.22;1.83;;;15.60;94.30;;;;;;5013121;28;20677;-68
2021/08/03 01:33:36;;;;;;;3.97;1.80;;;15.50;94.30;;;;;;5023513;28;20095;-68
2021/08/03 01:36:03;;;;;;;3.60;1.67;;;15.50;94.30;;;;;;5018710;28;20349;-68
2021/08/03 01:38:31;;;;;;;2.80;1.67;;;15.60;94.30;;;;;;5014115;28;20034;-68
2021/08/03 01:41:03;;;;;;;3.22;1.60;;;15.60;94.30;;;;;;5011092;28;20026;-68
2021/08/03 01:43:32;;;;;;;3.53;1.98;;;15.50;94.30;;;;;;5019670;28;20749;-68
2021/08/03 01:45:58;;;;;;;3.92;2.20;;;15.50;94.30;;;;;;5019262;28;20038;-67
2021/08/03 01:48:25;;;;;;;4.13;2.08;;;15.50;94.20;;;;;;5015576;28;20045;-67
2021/08/03 01:50:53;;;;;;;3.42;2.10;;;15.40;94.30;;;;;;5019867;28;20388;-69
2021/08/03 01:53:23;;;;;;;3.65;1.92;;;15.50;94.40;;;;;;5017560;28;20079;-67
2021/08/03 01:55:52;;;;;;;4.72;2.70;;;15.40;94.40;;;;;;5019747;28;20368;-67
2021/08/03 01:58:20;;;;;;;3.03;1.88;;;15.40;94.50;;;;;;5016708;28;20455;-69
2021/08/03 02:00:46;;;;;;;3.80;2.25;;;15.40;94.50;;;;;;5015109;28;20033;-69
2021/08/03 02:03:13;;;;;;;3.85;2.45;;;15.40;94.60;;;;;;5025329;28;20034;-68
2021/08/03 02:05:41;;;;;;;4.18;2.08;;;15.30;94.50;;;;;;5022952;28;20061;-68
2021/08/03 02:08:09;;;;;;;4.28;2.05;;;15.30;94.60;;;;;;5017738;28;20431;-67
2021/08/03 02:10:36;;;;;;;6.25;2.60;;;15.30;94.50;;;;;;5019866;28;20381;-68
2021/08/03 02:13:03;;;;;;;6.03;2.60;;;15.40;94.50;;;;;;5021776;28;20064;-67
2021/08/03 02:15:32;;;;;;;5.85;2.28;;;15.30;94.80;;;;;;5028510;28;20026;-67
2021/08/03 02:17:58;;;;;;;4.78;2.60;;;15.30;94.70;;;;;;5024335;28;20496;-68
2021/08/03 02:20:23;;;;;;;3.22;2.03;;;15.30;94.70;;;;;;5018599;28;20028;-68
2021/08/03 02:22:50;;;;;;;4.82;2.75;;;15.30;94.70;;;;;;5020114;28;20033;-68
2021/08/03 02:25:17;;;;;;;4.28;2.65;;;15.30;94.70;;;;;;5024198;28;20022;-67
2021/08/03 02:27:43;;;;;;;5.47;2.58;;;15.30;94.70;;;;;;5021577;28;20444;-68
2021/08/03 02:30:11;;;;;;;4.28;3.10;;;15.30;94.70;;;;;;5020040;28;20040;-68
2021/08/03 02:32:58;;;;;;;5.63;2.85;;;15.30;94.70;;;;;;5017462;28;20060;-67
2021/08/03 02:35:30;;;;;;;8.63;2.88;;;15.30;94.70;;;;;;5019542;28;20418;-68
2021/08/03 02:38:03;;;;;;;5.07;2.70;;;15.30;94.70;;;;;;5016095;28;20044;-68
2021/08/03 02:40:29;;;;;;;4.00;2.45;;;15.30;94.70;;;;;;5014303;28;20602;-68
2021/08/03 02:42:57;;;;;;;3.83;2.50;;;15.30;94.70;;;;;;5020130;28;20084;-68
2021/08/03 02:45:24;;;;;;;4.85;2.50;;;15.30;94.70;;;;;;5018725;28;20030;-68
2021/08/03 02:47:55;;;;;;;3.58;2.55;;;15.30;94.70;;;;;;5016454;28;20448;-68
2021/08/03 02:50:23;;;;;;;5.18;2.85;;;15.30;94.60;;;;;;5019644;28;20031;-67
2021/08/03 02:52:53;;;;;;;4.93;2.80;;;15.30;94.60;;;;;;5021056;28;20037;-69
2021/08/03 02:55:31;;;;;;;4.20;2.38;;;15.30;94.60;;;;;;5014390;28;20030;-68
2021/08/03 02:58:08;;;;;;;5.47;2.60;;;15.30;94.60;;;;;;5017250;28;20080;-69
2021/08/03 03:00:37;;;;;;;5.10;2.47;;;15.30;94.60;;;;;;5018695;28;20017;-67
2021/08/03 03:03:15;;;;;;;3.72;2.55;;;15.30;94.60;;;;;;5021868;28;20021;-67
2021/08/03 03:05:44;;;;;;;4.53;2.92;;;15.30;94.60;;;;;;5021938;28;20018;-67
2021/08/03 03:08:15;;;;;;;4.50;2.60;;;15.30;94.60;;;;;;5012686;28;20034;-68
2021/08/03 03:10:47;;;;;;;5.18;2.78;;;15.30;94.60;;;;;;5019192;28;20064;-68
2021/08/03 03:13:20;;;;;;;5.88;2.42;;;15.30;94.60;;;;;;5020955;28;20037;-68
2021/08/03 03:15:47;;;;;;;4.15;2.63;;;15.30;94.70;;;;;;5016745;28;20065;-68
2021/08/03 03:18:13;;;;;;;4.20;2.45;;;15.30;94.70;;;;;;5025594;28;20038;-68
2021/08/03 03:20:40;;;;;;;8.05;3.17;;;15.30;94.70;;;;;;5016676;28;20105;-67
2021/08/03 03:23:06;;;;;;;4.95;2.17;;;15.20;94.70;;;;;;5014958;28;20030;-68
2021/08/03 03:25:32;;;;;;;4.45;2.30;;;15.30;94.70;;;;;;5020009;28;20059;-67
2021/08/03 03:28:03;;;;;;;5.07;2.65;;;15.30;94.70;;;;;;5022438;28;20056;-67
2021/08/03 03:30:30;;;;;;;;;;;15.30;94.80;;;;;;5019916;28;20492;-67
2021/08/03 03:33:02;;;;;;;6.07;3.00;;;15.20;94.90;;;;;;5015853;28;19909;-68
2021/08/03 03:35:30;;;;;;;4.28;2.40;;;15.20;95.00;;;;;;5018978;28;20092;-68
2021/08/03 03:37:56;;;;;;;4.03;2.50;;;15.30;94.90;;;;;;5009217;28;20036;-67
2021/08/03 03:40:24;;;;;;;4.68;2.38;;;15.30;94.90;;;;;;5016589;28;20030;-67
2021/08/03 03:42:52;;;;;;;3.67;2.40;;;15.30;94.90;;;;;;5018600;28;20057;-68
2021/08/03 03:45:18;;;;;;;4.50;2.50;;;15.30;94.90;;;;;;5013842;28;20384;-67
2021/08/03 03:47:59;;;;;;;4.88;2.15;;;15.30;95.00;;;;;;5020124;28;20028;-69
2021/08/03 03:50:35;;;;;;;5.32;3.00;;;15.30;95.00;;;;;;5013528;28;20024;-70
2021/08/03 03:53:21;;;;;;;5.68;2.50;;;15.30;95.00;;;;;;5008228;28;20037;-68
2021/08/03 03:55:53;;;;;;;4.65;2.38;;;15.30;95.00;;;;;;5015078;28;20101;-67
2021/08/03 03:58:20;;;;;;;4.22;2.38;;;15.30;95.00;;;;;;5013694;28;20038;-67
2021/08/03 04:00:48;;;;;;;7.00;2.72;;;15.30;95.10;;;;;;5009041;28;20022;-69
2021/08/03 04:03:17;;;;;;;5.05;2.60;;;15.30;95.40;;;;;;5018674;28;20092;-67
2021/08/03 04:05:44;;;;;;;3.97;2.35;;;15.30;95.40;;;;;;5008003;28;20213;-67
2021/08/03 04:08:10;;;;;;;3.40;2.33;;;15.30;95.30;;;;;;5017647;28;20442;-68
2021/08/03 04:10:38;;;;;;;3.58;2.10;;;15.30;95.40;;;;;;5018980;28;20104;-68
2021/08/03 04:13:05;;;;;;;5.55;2.58;;;15.40;95.40;;;;;;5022182;28;20038;-68
2021/08/03 04:15:34;;;;;;;4.25;2.58;;;15.40;95.40;;;;;;5021439;28;20047;-67
2021/08/03 04:18:00;;;;;;;4.85;2.58;;;15.40;95.50;;;;;;5010666;28;20053;-69
2021/08/03 04:20:26;;;;;;;4.65;2.17;;;15.30;95.60;;;;;;5011353;28;21583;-69
2021/08/03 04:22:52;;;;;;;5.15;2.97;;;15.30;95.70;;;;;;5017892;28;20029;-68
2021/08/03 04:25:18;;;;;;;5.80;2.28;;;15.30;95.80;;;;;;5023714;28;20025;-69
2021/08/03 04:27:45;;;;;;;3.55;1.98;;;15.30;95.80;;;;;;5018948;28;20036;-68
2021/08/03 04:30:13;;;;;;;4.72;2.25;;;15.40;95.80;;;;;;5021602;28;20028;-68
2021/08/03 04:32:40;;;;;;;3.00;2.00;;;15.30;95.70;;;;;;5019635;28;20036;-68
2021/08/03 04:35:06;;;;;;;3.40;1.70;;;15.40;95.50;;;;;;5022544;28;20412;-68
2021/08/03 04:37:43;;;;;;;4.03;1.70;;;15.40;95.60;;;;;;5010552;28;20084;-67
2021/08/03 04:40:10;;;;;;;3.55;1.50;;;15.40;95.60;;;;;;5014997;28;20022;-68
2021/08/03 04:42:36;;;;;;;2.55;1.90;;;15.40;95.60;;;;;;5012965;28;20026;-67
2021/08/03 04:45:03;;;;;;;2.90;1.60;;;15.40;95.40;;;;;;5013418;28;20383;-67
2021/08/03 04:47:29;;;;;;;4.00;1.50;;;15.40;95.50;;;;;;5016525;28;20014;-68
2021/08/03 04:49:55;;;;;;;3.40;1.40;;;15.30;95.80;;;;;;5018510;28;20029;-67
2021/08/03 04:52:21;;;;;;;2.05;1.30;;;15.30;95.90;;;;;;5010501;28;20022;-69
2021/08/03 04:54:46;;;;;;;3.13;1.65;;;15.30;95.80;;;;;;5017950;28;20728;-69
2021/08/03 04:57:12;;;;;;;3.97;1.67;;;15.30;95.80;;;;;;5006155;28;20048;-69
2021/08/03 04:59:37;;;;;;;2.28;1.45;;;15.30;95.90;;;;;;5014804;28;20120;-67
2021/08/03 05:02:04;;;;;;;2.85;1.30;;;15.40;95.90;;;;;;5003162;28;20024;-68
2021/08/03 05:04:33;;;;;;;4.60;1.73;;;15.40;95.60;;;;;;4998598;28;20030;-70
2021/08/03 05:07:01;;;;;;;4.25;1.70;;;15.40;95.60;;;;;;5011472;28;20164;-70
2021/08/03 05:09:26;;;;;;;2.80;1.60;;;15.50;95.70;;;;;;5015253;28;20083;-68
2021/08/03 05:11:52;;;;;;;2.88;1.80;;;15.50;95.70;;;;;;5010411;28;20050;-68
2021/08/03 05:14:18;;;;;;;2.67;1.67;;;15.50;95.60;;;;;;5014998;28;20503;-68
2021/08/03 05:16:43;;;;;;;2.70;1.73;;;15.50;95.60;;;;;;5011383;28;20034;-67
2021/08/03 05:19:09;;;;;;;2.35;1.70;;;15.50;95.70;;;;;;5012754;28;20697;-67
2021/08/03 05:21:35;;;;;;;3.30;1.88;;;15.50;95.70;;;;;;5009553;28;20056;-67
2021/08/03 05:24:00;;;;;;;3.00;2.28;;;15.60;95.70;;;;;;5018565;28;20518;-67
2021/08/03 05:26:26;;;;;;;2.15;1.80;;;15.60;95.70;;;;;;5019345;28;20061;-69
2021/08/03 05:28:51;;;;;;;3.15;2.00;;;15.60;95.70;;;;;;5019476;28;20073;-67
2021/08/03 05:31:17;;;;;;;2.78;1.80;;;15.60;95.70;;;;;;5016856;28;20029;-67
2021/08/03 05:33:43;;;;;;;3.53;2.03;;;15.70;95.60;;;;;;5019268;28;20033;-68
2021/08/03 05:36:08;;;;;;;1.98;1.70;;;15.70;95.60;;;;;;5016100;28;20029;-67
2021/08/03 05:38:34;;;;;;;3.15;2.25;;;15.70;95.50;;;;;;5021382;28;20550;-70
2021/08/03 05:41:00;;;;;;;3.13;2.00;;;15.80;95.50;;;;;;5020807;28;20040;-67
2021/08/03 05:43:25;;;;;;;5.05;1.80;;;15.80;95.40;;;;;;5025934;28;20402;-67
2021/08/03 05:45:51;;;;;;;3.58;2.00;;;15.90;95.40;;;;;;5018026;28;20026;-67
2021/08/03 05:48:17;;;;;;;3.40;2.22;;;15.90;95.30;;;;;;5014838;28;20037;-68
2021/08/03 05:50:42;;;;;;;3.78;2.05;;;15.90;95.30;;;;;;5022945;28;20030;-68
2021/08/03 05:53:08;;;;;;;3.08;2.10;;;16.00;95.30;;;;;;5015747;28;20034;-67
2021/08/03 05:55:34;;;;;;;3.88;2.13;;;16.00;95.40;;;;;;5015173;28;20033;-67
2021/08/03 05:57:59;;;;;;;3.17;1.90;;;16.00;95.30;;;;;;5013739;28;20030;-66
2021/08/03 06:00:25;;;;;;;5.55;2.30;;;16.10;95.20;;;;;;5013222;28;20053;-71
2021/08/03 06:02:51;;;;;;;3.42;1.90;;;16.10;94.90;;;;;;5012265;28;20026;-69
2021/08/03 06:05:16;;;;;;;3.35;1.95;;;16.10;94.60;;;;;;5016870;28;20029;-67
2021/08/03 06:07:48;;;;;;;3.22;1.73;;;16.10;94.10;;;;;;5018189;28;20022;-67
2021/08/03 06:10:15;;;;;;;;;;;16.10;93.90;;;;;;5027529;28;20033;-68
2021/08/03 06:12:54;;;;;;;3.97;2.10;;;16.20;94.00;;;;;;5020084;28;19918;-67
2021/08/03 06:15:20;;;;;;;3.72;1.90;;;16.20;94.10;;;;;;5024545;28;20112;-67
2021/08/03 06:17:55;;;;;;;3.08;1.70;;;16.20;94.10;;;;;;5018593;28;20022;-67
2021/08/03 06:20:21;;;;;;;6.53;2.58;;;16.20;94.20;;;;;;5003222;28;20373;-67
2021/08/03 06:22:48;;;;;;;3.42;2.15;;;16.30;93.90;;;;;;5013891;28;20022;-66
2021/08/03 06:25:14;;;;;;;5.43;2.47;;;16.30;93.90;;;;;;5018511;28;20087;-68
2021/08/03 06:27:41;;;;;;;5.55;2.30;;;16.30;93.90;;;;;;5015616;28;20030;-67
2021/08/03 06:30:08;;;;;;;5.50;2.30;;;16.30;94.00;;;;;;5020176;28;20056;-67
2021/08/03 06:32:34;;;;;;;3.55;2.08;;;16.30;94.00;;;;;;5015636;28;20036;-67
2021/08/03 06:35:00;;;;;;;4.38;2.15;;;16.40;94.10;;;;;;5017592;28;20133;-67
2021/08/03 06:37:26;;;;;;;3.47;2.33;;;16.50;94.20;;;;;;5012895;28;20057;-67
2021/08/03 06:39:51;;;;;;;2.53;1.85;;;16.60;94.10;;;;;;5012930;28;20076;-67
2021/08/03 06:42:25;;;;;;;3.13;2.42;;;16.50;94.00;;;;;;5014329;28;20033;-67
2021/08/03 06:44:57;;;;;;;4.15;2.10;;;16.60;93.80;;;;;;5012857;28;20040;-68
2021/08/03 06:47:28;;;;;;;3.65;1.80;;;16.60;93.70;;;;;;5019995;28;20030;-66
2021/08/03 06:49:57;;;;;;;4.47;2.10;;;16.60;93.50;;;;;;5018270;28;20391;-66
2021/08/03 06:52:24;;;;;;;6.38;2.65;;;16.60;93.30;;;;;;5015294;28;20395;-68
2021/08/03 06:55:02;;;;;;;3.17;1.70;;;16.80;92.60;;;;;;5015786;28;20035;-67
2021/08/03 06:57:32;;;;;;;4.43;2.35;;;16.80;92.80;;;;;;5010397;28;20037;-67
2021/08/03 07:00:06;;;;;;;3.75;1.92;;;16.90;92.50;;;;;;5012742;28;20104;-67
2021/08/03 07:02:41;;;;;;;3.65;2.30;;;16.90;92.60;;;;;;5008256;28;20104;-67
2021/08/03 07:05:09;;;;;;;3.28;1.90;;;17.00;92.70;;;;;;5010807;28;20061;-67
2021/08/03 07:07:36;;;;;;;2.33;1.90;;;17.00;92.50;;;;;;5016688;28;20075;-67
2021/08/03 07:10:05;;;;;;;2.50;1.73;;;17.00;92.10;;;;;;5009197;28;20044;-67
2021/08/03 07:12:31;;;;;;;2.45;1.52;;;17.00;91.50;;;;;;5014502;28;20115;-67
2021/08/03 07:14:57;;;;;;;4.13;1.60;;;17.00;91.50;;;;;;5009927;28;20080;-69
2021/08/03 07:17:29;;;;;;;3.70;2.13;;;17.10;91.50;;;;;;5012448;28;20026;-69
2021/08/03 07:19:57;;;;;;;3.78;2.10;;;17.10;91.50;;;;;;5013029;28;20029;-68
2021/08/03 07:22:23;;;;;;;4.57;2.00;;;17.20;91.40;;;;;;5011042;28;20037;-69
2021/08/03 07:24:49;;;;;;;3.70;1.67;;;17.30;91.40;;;;;;5016524;28;20037;-69
2021/08/03 07:27:15;;;;;;;2.97;2.25;;;17.30;91.40;;;;;;5013929;28;21687;-69
2021/08/03 07:29:40;;;;;;;5.70;1.70;;;17.30;91.30;;;;;;5015518;28;20037;-69
2021/08/03 07:32:12;;;;;;;3.78;1.60;;;17.30;91.40;;;;;;5012927;28;20029;-69
2021/08/03 07:34:40;;;;;;;2.13;0.90;;;17.40;90.60;;;;;;5015029;28;20060;-69
2021/08/03 07:37:06;;;;;;;2.03;1.00;;;17.50;90.20;;;;;;5013942;28;20018;-69
2021/08/03 07:39:34;;;;;;;1.90;1.30;;;17.50;90.60;;;;;;5014414;28;20077;-67
2021/08/03 07:42:00;;;;;;;1.70;1.23;;;17.60;90.30;;;;;;5017198;28;20032;-68
2021/08/03 07:44:26;;;;;;;1.80;1.02;;;17.50;90.20;;;;;;5019782;28;20376;-66
2021/08/03 07:46:52;;;;;;;3.03;0.95;;;17.50;90.10;;;;;;5014385;28;20021;-67
2021/08/03 07:49:18;;;;;;;2.00;0.88;;;17.50;90.20;;;;;;5011039;28;20072;-67
2021/08/03 07:51:46;;;;;;;2.35;0.90;;;17.40;88.40;;;;;;5016828;28;20021;-66
2021/08/03 07:54:12;;;;;;;1.63;0.88;;;17.40;88.70;;;;;;5020399;28;20153;-66
2021/08/03 07:56:37;;;;;;;1.30;0.90;;;17.40;89.30;;;;;;5018862;28;20462;-66
2021/08/03 07:59:03;;;;;;;2.38;0.68;;;17.50;89.30;;;;;;5012580;28;20464;-66
2021/08/03 08:01:29;;;;;;;2.03;0.75;;;17.50;86.30;;;;;;5011256;28;20038;-68
2021/08/03 08:03:54;;;;;;;1.27;0.70;;;17.50;86.30;;;;;;5019875;28;20040;-68
2021/08/03 08:06:20;;;;;;;1.00;0.82;;;17.50;87.50;;;;;;5019909;28;20136;-67
2021/08/03 08:08:46;;;;;;;0.93;0.70;;;17.50;88.10;;;;;;5016478;28;20030;-68
2021/08/03 08:11:11;;;;;;;0.95;0.90;;;17.50;88.20;;;;;;5017215;28;20033;-67
2021/08/03 08:13:37;;;;;;;2.17;1.10;;;17.50;88.40;;;;;;5019461;28;20045;-68
2021/08/03 08:16:04;;;;;;;2.55;0.95;;;17.60;88.50;;;;;;5016821;28;20034;-67
2021/08/03 08:18:30;;;;;;;1.15;0.85;;;17.70;86.80;;;;;;5017635;28;20131;-67
2021/08/03 08:20:56;;;;;;;2.55;1.13;;;17.70;87.70;;;;;;5015024;28;20050;-66
2021/08/03 08:23:21;;;;;;;1.63;1.10;;;17.80;86.60;;;;;;5012730;28;20374;-69
2021/08/03 08:25:47;;;;;;;2.00;1.20;;;17.90;86.40;;;;;;5019818;28;20028;-67
2021/08/03 08:28:13;;;;;;;0.90;0.50;;;17.90;84.40;;;;;;5014763;28;20026;-67
2021/08/03 08:30:39;;;;;;;1.27;0.70;;;18.10;84.60;;;;;;5017132;28;20484;-67
2021/08/03 08:33:05;;;;;;;1.35;0.82;;;18.20;85.00;;;;;;5015464;28;20029;-67
2021/08/03 08:35:31;;;;;;;0.55;0.50;;;18.30;84.10;;;;;;5014435;28;20065;-66
2021/08/03 08:37:58;;;;;;;1.33;0.80;;;18.40;82.50;;;;;;5014585;28;20033;-66
2021/08/03 08:40:23;;;;;;;1.15;0.52;;;18.50;83.20;;;;;;5015482;28;20026;-66
2021/08/03 08:42:49;;;;;;;0.90;0.57;;;18.60;83.00;;;;;;5020448;28;20415;-68
2021/08/03 08:45:17;;;;;;;1.13;0.60;;;18.60;81.60;;;;;;5016175;28;20022;-66
2021/08/03 08:47:48;;;;;;;3.05;0.75;;;18.60;82.10;;;;;;5013266;28;20021;-67
2021/08/03 08:50:16;;;;;;;1.85;0.75;;;18.60;80.40;;;;;;5015596;28;20499;-67
2021/08/03 08:52:45;;;;;;;1.00;0.52;;;18.60;81.60;;;;;;5016764;28;20475;-67
2021/08/03 08:55:11;;;;;;;1.30;0.90;;;18.70;82.00;;;;;;5016045;28;20384;-66
2021/08/03 08:57:38;;;;;;;2.88;1.67;;;18.80;81.90;;;;;;5014155;28;20038;-68
2021/08/03 09:00:06;;;;;;;2.80;0.80;;;18.80;81.80;;;;;;5018966;28;20040;-67
2021/08/03 09:02:47;;;;;;;2.13;1.00;;;18.80;79.90;;;;;;5015011;28;20029;-66
2021/08/03 09:05:17;;;;;;;1.42;0.75;;;19.10;82.30;;;;;;5018073;28;20034;-67
2021/08/03 09:07:53;;;;;;;1.17;0.93;;;19.20;81.80;;;;;;5015660;28;20097;-66
2021/08/03 09:10:49;;;;;;;1.77;0.80;;;19.40;82.10;;;;;;5014163;28;20030;-66
2021/08/03 09:13:23;;;;;;;1.45;0.90;;;19.50;79.50;;;;;;5022263;28;20029;-67
2021/08/03 09:16:00;;;;;;;1.38;0.70;;;19.60;79.60;;;;;;5018495;28;20029;-68
2021/08/03 09:18:29;;;;;;;2.03;0.70;;;19.60;78.00;;;;;;5020312;28;20044;-68
2021/08/03 09:20:58;;;;;;;1.58;0.73;;;19.70;78.90;;;;;;5015238;28;20030;-67
2021/08/03 09:24:00;;;;;;;1.58;0.70;;;19.70;79.20;;;;;;5017933;28;20022;-68
2021/08/03 09:26:40;;;;;;;0.85;0.65;;;19.60;76.60;;;;;;5001387;28;20110;-67
2021/08/03 09:29:11;;;;;;;1.43;0.80;;;19.60;78.30;;;;;;5020104;28;20108;-66
2021/08/03 09:31:38;;;;;;;1.40;0.80;;;19.70;78.70;;;;;;5022984;28;20109;-66
2021/08/03 09:34:16;;;;;;;1.10;0.55;;;19.80;79.10;;;;;;5018752;28;20461;-70
2021/08/03 09:37:07;;;;;;;1.65;0.80;;;19.90;75.30;;;;;;5017784;28;20041;-67
2021/08/03 09:39:46;;;;;;;1.02;0.70;;;19.90;76.50;;;;;;5013581;28;20050;-66
2021/08/03 09:42:17;;;;;;;1.25;0.70;;;20.00;76.40;;;;;;5019656;28;20030;-66
2021/08/03 09:44:45;;;;;;;;;;;20.10;74.20;;;;;;5018111;28;20037;-67
2021/08/03 09:47:11;;;;;;;1.13;0.60;;;20.20;73.40;;;;;;5013909;28;19913;-68
2021/08/03 09:49:42;;;;;;;2.55;0.80;;;20.20;75.00;;;;;;5018516;28;20049;-68
2021/08/03 09:52:10;;;;;;;0.90;0.70;;;20.10;73.70;;;;;;5019800;28;20057;-67
2021/08/03 09:54:36;;;;;;;0.93;0.50;;;20.20;75.10;;;;;;5019021;28;20034;-67
2021/08/03 09:57:04;;;;;;;2.97;0.50;;;20.30;75.50;;;;;;5016481;28;20112;-66
2021/08/03 09:59:36;;;;;;;1.70;0.93;;;20.30;74.90;;;;;;5014951;28;20030;-69
2021/08/03 10:02:03;;;;;;;0.80;0.60;;;20.20;72.10;;;;;;5014527;28;20029;-68
2021/08/03 10:04:32;;;;;;;1.88;0.63;;;20.30;74.10;;;;;;5018866;28;20069;-68
2021/08/03 10:06:58;;;;;;;1.33;0.70;;;20.30;73.50;;;;;;5018821;28;20032;-68
2021/08/03 10:09:25;;;;;;;1.65;0.70;;;20.40;74.90;;;;;;5015500;28;20056;-68
2021/08/03 10:11:54;;;;;;;1.35;0.65;;;20.40;75.00;;;;;;5012118;28;20034;-68
2021/08/03 10:14:21;;;;;;;0.82;0.57;;;20.40;74.80;;;;;;5016401;28;20038;-68
2021/08/03 10:16:47;;;;;;;2.25;0.70;;;20.40;75.30;;;;;;5016431;28;20032;-68
2021/08/03 10:19:19;;;;;;;0.82;0.52;;;20.40;74.80;;;;;;5015066;28;20025;-68
2021/08/03 10:21:48;;;;;;;2.50;0.80;;;20.40;74.90;;;;;;5017673;28;20072;-69
2021/08/03 10:24:21;;;;;;;1.90;0.70;;;20.40;74.50;;;;;;5012141;28;20148;-69
2021/08/03 10:27:09;;;;;;;0.80;0.60;;;20.20;72.50;;;;;;5015128;28;20612;-70
2021/08/03 10:29:45;;;;;;;1.20;0.73;;;20.10;74.20;;;;;;5010793;28;20033;-70
2021/08/03 10:32:38;;;;;;;1.88;0.80;;;20.10;73.70;;;;;;5017083;28;20041;-71
2021/08/03 10:35:04;;;;;;;0.90;0.70;;;20.00;74.40;;;;;;5008409;28;20032;-71
2021/08/03 10:37:59;;;;;;;0.82;0.55;;;20.00;75.30;;;;;;5014481;28;20064;-71
2021/08/03 10:40:43;;;;;;;0.63;0.50;;;20.00;74.10;;;;;;5015925;28;20057;-69
2021/08/03 10:43:28;;;;;;;1.30;0.77;;;20.00;74.90;;;;;;5020710;28;20101;-70
2021/08/03 10:46:06;;;;;;;1.52;0.60;;;20.10;74.70;;;;;;5017727;28;20026;-70
2021/08/03 10:48:37;;;;;;;0.73;0.50;;;20.00;71.40;;;;;;5012939;28;20029;-70
2021/08/03 10:51:15;;;;;;;1.38;0.60;;;20.10;72.40;;;;;;5015204;28;20025;-70
2021/08/03 10:54:01;;;;;;;2.25;0.60;;;20.00;72.50;;;;;;5014607;28;20087;-71
2021/08/03 10:56:47;;;;;;;1.33;0.80;;;20.00;70.50;;;;;;5017726;28;20049;-69
2021/08/03 10:59:34;;;;;;;0.88;0.50;;;20.00;72.10;;;;;;5015827;28;20042;-70
2021/08/03 11:02:02;;;;;;;1.20;0.82;;;20.00;72.50;;;;;;5013629;28;20034;-70
2021/08/03 11:04:40;;;;;;;1.50;0.70;;;20.00;72.90;;;;;;5014380;28;20442;-69
2021/08/03 11:07:25;;;;;;;0.95;0.73;;;20.10;72.50;;;;;;5011254;28;20610;-69
2021/08/03 11:10:14;;;;;;;1.88;0.63;;;20.30;71.90;;;;;;5009897;28;20157;-69
2021/08/03 11:12:51;;;;;;;1.50;0.77;;;20.50;72.00;;;;;;5003440;28;20147;-71
2021/08/03 11:15:22;;;;;;;1.10;0.70;;;20.60;71.10;;;;;;5012382;28;20030;-70
2021/08/03 11:17:50;;;;;;;1.48;0.80;;;20.80;71.20;;;;;;5015005;28;20507;-70
2021/08/03 11:20:34;;;;;;;1.15;0.98;;;21.00;72.10;;;;;;5011829;28;20403;-71
2021/08/03 11:23:11;;;;;;;2.28;0.80;;;21.20;71.90;;;;;;5011806;28;20075;-72
2021/08/03 11:25:37;;;;;;;1.27;0.80;;;21.50;73.30;;;;;;5014162;28;20054;-73
2021/08/03 11:28:22;;;;;;;1.67;1.02;;;21.60;72.70;;;;;;5015263;28;20554;-74
2021/08/03 11:30:51;;;;;;;2.65;0.90;;;21.80;71.20;;;;;;5018336;28;20079;-71
2021/08/03 11:33:20;;;;;;;1.77;0.52;;;21.80;71.80;;;;;;5014914;28;20048;-70
2021/08/03 11:35:46;;;;;;;2.13;0.77;;;21.60;72.30;;;;;;5018296;28;20036;-73
2021/08/03 11:38:17;;;;;;;1.83;0.73;;;21.40;72.20;;;;;;5009492;28;20038;-75
2021/08/03 11:40:44;;;;;;;;;;;21.50;73.10;;;;;;5018594;28;20052;-75
2021/08/03 11:43:11;;;;;;;1.30;0.70;;;21.50;71.30;;;;;;5013451;28;19916;-75
2021/08/03 11:45:39;;;;;;;1.33;0.70;;;21.40;72.50;;;;;;5016420;28;20021;-76
2021/08/03 11:48:21;;;;;;;1.27;0.88;;;21.10;73.30;;;;;;5012717;28;20034;-74
2021/08/03 11:50:47;;;;;;;1.00;0.70;;;20.80;74.00;;;;;;5012778;28;20105;-68
2021/08/03 11:53:18;;;;;;;1.50;0.75;;;20.50;74.80;;;;;;5007113;28;20143;-68
2021/08/03 11:55:49;;;;;;;1.63;0.85;;;20.30;75.60;;;;;;5011982;28;20610;-68
2021/08/03 11:58:21;;;;;;;1.23;0.77;;;20.00;76.40;;;;;;5013402;28;20108;-68
2021/08/03 12:00:55;;;;;;;1.48;0.93;;;19.90;77.00;;;;;;5010848;28;20705;-67
2021/08/03 12:03:40;;;;;;;4.68;0.88;;;19.80;77.80;;;;;;5012518;28;20029;-69
2021/08/03 12:06:06;;;;;;;1.33;0.85;;;19.70;77.90;;;;;;5007826;28;20696;-71
2021/08/03 12:08:37;;;;;;;1.00;0.77;;;19.70;78.00;;;;;;5008988;28;20048;-72
2021/08/03 12:11:04;;;;;;;1.45;0.80;;;19.60;78.30;;;;;;5011433;28;20040;-70
2021/08/03 12:13:35;;;;;;;1.60;1.08;;;19.60;78.20;;;;;;5013780;28;20061;-70
2021/08/03 12:16:03;;;;;;;1.70;0.88;;;19.50;79.00;;;;;;5015195;28;20986;-71
2021/08/03 12:18:43;;;;;;;1.13;0.90;;;19.50;79.50;;;;;;5014584;28;20025;-72
2021/08/03 12:21:09;;;;;;;1.10;0.80;;;19.50;79.80;;;;;;5011512;28;20026;-72
2021/08/03 12:23:38;;;;;;;1.23;0.90;;;19.40;79.70;;;;;;5013739;28;20447;-71
2021/08/03 12:26:16;;;;;;;1.85;0.80;;;19.30;80.00;;;;;;5011128;28;20021;-71
2021/08/03 12:29:02;;;;;;;1.38;0.95;;;19.30;80.20;;;;;;5018379;28;20479;-71
2021/08/03 12:31:32;;;;;;;1.23;0.80;;;19.20;80.40;;;;;;5012443;28;20046;-69
2021/08/03 12:34:15;;;;;;;2.78;1.08;;;19.20;80.50;;;;;;5012658;28;20026;-70
2021/08/03 12:36:42;;;;;;;1.80;0.80;;;19.20;80.40;;;;;;5011240;28;20045;-73
2021/08/03 12:39:20;;;;;;;0.95;0.68;;;19.30;80.20;;;;;;5013447;28;20130;-70
2021/08/03 12:42:11;;;;;;;1.15;0.80;;;19.30;80.00;;;;;;5013878;28;20029;-71
2021/08/03 12:44:40;;;;;;;4.35;1.15;;;19.40;79.70;;;;;;5008735;28;20394;-70
2021/08/03 12:47:19;;;;;;;2.33;1.13;;;19.50;79.40;;;;;;5016486;28;20028;-69
2021/08/03 12:49:47;;;;;;;1.38;0.90;;;19.60;79.40;;;;;;5017810;28;20036;-68
2021/08/03 12:52:16;;;;;;;2.28;1.20;;;19.60;79.00;;;;;;5011268;28;20034;-69
2021/08/03 12:54:55;;;;;;;1.10;0.70;;;19.70;79.00;;;;;;5011743;28;20177;-69
2021/08/03 12:57:23;;;;;;;1.45;0.60;;;19.70;79.10;;;;;;5014613;28;20037;-69
2021/08/03 12:59:50;;;;;;;1.25;0.93;;;19.70;79.50;;;;;;5012301;28;20035;-69
2021/08/03 13:02:17;;;;;;;1.92;1.02;;;19.60;80.10;;;;;;5006416;28;20436;-70
2021/08/03 13:04:44;;;;;;;1.88;0.95;;;19.60;80.40;;;;;;5006413;28;20029;-70